Essex, Missouri
Current Conditions -  °F | °C
As of 1:53 PM on Thursday 29 Jan 2015 (Local Time) from KPOF Reporting Station
Overcast Overcast  
Wind Chill: 39°   Ceiling: 2900
Heat Index: 45°   Visibility: 10mi
Dew Point: 34°   Wind: 14mph
Humidity: 65%   Direction: 320°NW
Pressure: 30.19"   Gusts: 28mph
Location:  36.81°N, 89.86°W
Report Text: KPOF 291953Z AUTO 32012G24KT 10SM OVC029 07/01 A3019 RMK AO2 PK WND 31026/1902 SLP225 T00720011
Loading
Personal Weather Stations






























Interactive Weather Map New forecast layout! Learn more

10-Day Weather Forecast

Advertisements
Track Severe Weather on mobile